Time;durP1;ratioP1;P1;durP2;ratioP2;P2;SDS_P1;SDS_P2;PMS_P1;PMS_P2;Temp;Humidity;BMP_temperature;BMP_pressure;BME280_temperature;BME280_humidity;BME280_pressure;Samples;Min_cycle;Max_cycle;Signal;HPM_P1;HPM_P2
2022/05/22 00:01:02;;;;;;;4.30;2.53;;;12.60;99.90;;;;;;4938171;29;20178;-60
2022/05/22 00:03:27;;;;;;;3.20;1.93;;;12.60;99.90;;;;;;4941066;28;20657;-61
2022/05/22 00:05:53;;;;;;;4.53;1.57;;;12.50;99.90;;;;;;4938587;29;20194;-59
2022/05/22 00:08:19;;;;;;;5.83;1.60;;;12.50;99.90;;;;;;4936781;29;20224;-60
2022/05/22 00:10:45;;;;;;;5.47;1.50;;;12.50;99.90;;;;;;4937796;29;20190;-60
2022/05/22 00:13:10;;;;;;;8.57;1.70;;;12.50;99.90;;;;;;4937088;29;20209;-60
2022/05/22 00:16:36;;;;;;;2.60;1.30;;;12.50;99.90;;;;;;4939949;29;20213;-60
2022/05/22 00:18:21;;;;;;;4.20;1.57;;;12.40;99.90;;;;;;4939661;29;20906;-61
2022/05/22 00:20:47;;;;;;;2.87;2.00;;;12.50;99.90;;;;;;4940942;29;20204;-60
2022/05/22 00:23:12;;;;;;;5.50;1.43;;;12.50;99.90;;;;;;4940739;29;20939;-60
2022/05/22 00:25:38;;;;;;;3.57;1.40;;;12.50;99.90;;;;;;4940018;29;20186;-60
2022/05/22 00:28:03;;;;;;;4.30;1.30;;;12.50;99.90;;;;;;4936509;29;20227;-60
2022/05/22 00:30:29;;;;;;;5.50;1.53;;;12.60;99.90;;;;;;4930061;29;20533;-60
2022/05/22 00:32:54;;;;;;;3.97;1.30;;;12.60;99.90;;;;;;4927643;29;20267;-60
2022/05/22 00:35:20;;;;;;;5.13;2.00;;;12.60;99.90;;;;;;4941335;29;20692;-60
2022/05/22 00:37:45;;;;;;;8.33;1.60;;;12.60;99.90;;;;;;4929516;29;20202;-60
2022/05/22 00:40:11;;;;;;;4.00;1.73;;;12.50;99.90;;;;;;4939640;29;20654;-59
2022/05/22 00:42:38;;;;;;;2.93;1.27;;;12.60;99.90;;;;;;4931028;29;20221;-60
2022/05/22 00:45:05;;;;;;;6.47;1.43;;;12.50;99.90;;;;;;4935941;28;20280;-60
2022/05/22 00:47:31;;;;;;;2.90;1.70;;;12.40;99.90;;;;;;4934596;29;20211;-60
2022/05/22 00:50:00;;;;;;;2.90;2.13;;;12.50;99.90;;;;;;4932593;29;20568;-60
2022/05/22 00:52:35;;;;;;;2.87;1.57;;;12.40;99.90;;;;;;4938068;28;20205;-60
2022/05/22 00:55:13;;;;;;;5.57;2.00;;;12.40;99.90;;;;;;4930675;29;20233;-60
2022/05/22 00:57:50;;;;;;;5.97;1.77;;;12.40;99.90;;;;;;4939331;28;20215;-60
2022/05/22 01:00:19;;;;;;;6.93;1.60;;;12.30;99.90;;;;;;4930399;28;20353;-60
2022/05/22 01:05:32;;;;;;;2.17;1.60;;;12.30;99.90;;;;;;4927410;29;20204;-60
2022/05/22 01:08:00;;;;;;;5.90;1.63;;;12.20;99.90;;;;;;4939839;28;20248;-60
2022/05/22 01:10:35;;;;;;;5.50;1.53;;;12.10;99.90;;;;;;4937449;29;20189;-60
2022/05/22 01:13:01;;;;;;;6.10;1.83;;;12.10;99.90;;;;;;4910650;29;20586;-60
2022/05/22 01:15:27;;;;;;;3.83;1.30;;;12.20;99.90;;;;;;4948787;28;20214;-60
2022/05/22 01:17:53;;;;;;;1.97;1.30;;;12.10;99.90;;;;;;4943782;29;20200;-60
2022/05/22 01:20:19;;;;;;;6.30;2.10;;;12.00;99.90;;;;;;4936737;29;20209;-60
2022/05/22 01:22:44;;;;;;;4.73;1.77;;;11.90;99.90;;;;;;4940451;29;20209;-60
2022/05/22 01:25:11;;;;;;;3.17;1.63;;;12.00;99.90;;;;;;4930750;29;20235;-60
2022/05/22 01:27:39;;;;;;;3.17;1.60;;;11.90;99.90;;;;;;4934966;28;20246;-60
2022/05/22 01:30:11;;;;;;;3.93;1.43;;;11.90;99.90;;;;;;4928863;28;20203;-60
2022/05/22 01:32:38;;;;;;;7.67;1.77;;;11.90;99.90;;;;;;4921546;29;20198;-60
2022/05/22 01:35:05;;;;;;;3.47;1.50;;;11.90;99.90;;;;;;4932752;28;20340;-60
2022/05/22 01:37:30;;;;;;;5.10;1.67;;;11.80;99.90;;;;;;4937046;28;20251;-60
2022/05/22 01:39:56;;;;;;;9.70;2.37;;;11.90;99.90;;;;;;4935987;29;20703;-60
2022/05/22 01:42:21;;;;;;;3.47;1.97;;;11.80;99.90;;;;;;4942229;29;20228;-60
2022/05/22 01:44:47;;;;;;;7.23;2.20;;;11.90;99.90;;;;;;4927207;29;20748;-60
2022/05/22 01:47:12;;;;;;;5.27;2.10;;;11.90;99.90;;;;;;4928508;29;20205;-60
2022/05/22 01:49:38;;;;;;;3.73;1.60;;;11.90;99.90;;;;;;4940443;29;20692;-61
2022/05/22 01:52:04;;;;;;;2.50;1.50;;;11.90;99.90;;;;;;4942297;29;20207;-61
2022/05/22 01:54:29;;;;;;;1.80;1.20;;;11.90;99.90;;;;;;4931355;28;20219;-61
2022/05/22 01:56:55;;;;;;;3.57;1.67;;;11.90;99.90;;;;;;4927889;29;20200;-60
2022/05/22 01:59:20;;;;;;;5.33;2.20;;;12.00;99.90;;;;;;4930199;29;20221;-60
2022/05/22 02:01:45;;;;;;;2.27;1.60;;;11.90;99.90;;;;;;4935955;29;20212;-60
2022/05/22 02:04:11;;;;;;;7.20;1.40;;;11.80;99.90;;;;;;4942844;29;20212;-60
2022/05/22 02:08:19;;;;;;;5.67;1.70;;;11.80;99.90;;;;;;4928041;29;20618;-60
2022/05/22 02:09:25;;;;;;;3.10;1.90;;;11.90;99.90;;;;;;4939173;28;20664;-60
2022/05/22 02:11:51;;;;;;;7.10;2.00;;;12.00;99.90;;;;;;4932093;29;20206;-60
2022/05/22 02:14:17;;;;;;;8.00;2.30;;;11.90;99.90;;;;;;4941144;29;20686;-60
2022/05/22 02:16:42;;;;;;;2.57;1.80;;;12.00;99.90;;;;;;4950755;28;20208;-59
2022/05/22 02:19:08;;;;;;;4.23;1.50;;;12.00;99.90;;;;;;4939437;28;20209;-59
2022/05/22 02:21:33;;;;;;;4.70;1.77;;;12.00;99.90;;;;;;4931967;29;20868;-58
2022/05/22 02:23:59;;;;;;;6.10;1.80;;;12.00;99.90;;;;;;4938821;29;20213;-62
2022/05/22 02:26:25;;;;;;;6.27;2.00;;;12.00;99.90;;;;;;4948087;28;20287;-62
2022/05/22 02:28:50;;;;;;;6.80;2.30;;;11.90;99.90;;;;;;4929941;29;20230;-61
2022/05/22 02:31:15;;;;;;;4.00;1.97;;;11.90;99.90;;;;;;4932657;29;20187;-60
2022/05/22 02:33:41;;;;;;;5.90;2.10;;;11.90;99.90;;;;;;4935971;29;20206;-61
2022/05/22 02:36:08;;;;;;;5.30;1.83;;;11.80;99.90;;;;;;4942791;29;20251;-61
2022/05/22 02:38:35;;;;;;;6.47;2.00;;;11.90;99.90;;;;;;4932494;28;20265;-60
2022/05/22 02:41:06;;;;;;;5.87;1.97;;;11.90;99.90;;;;;;4940700;28;20326;-61
2022/05/22 02:43:32;;;;;;;5.90;2.07;;;12.00;99.90;;;;;;4927158;29;20234;-62
2022/05/22 02:45:59;;;;;;;2.93;1.63;;;11.90;99.90;;;;;;4933920;29;20225;-60
2022/05/22 02:48:24;;;;;;;9.37;2.27;;;11.90;99.90;;;;;;4935253;28;20685;-62
2022/05/22 02:50:50;;;;;;;5.10;1.80;;;11.80;99.90;;;;;;4943815;29;20197;-61
2022/05/22 02:53:15;;;;;;;4.17;2.33;;;11.80;99.90;;;;;;4938221;29;20695;-62
2022/05/22 02:55:43;;;;;;;7.13;2.70;;;11.80;99.90;;;;;;4943929;29;20217;-61
2022/05/22 02:58:09;;;;;;;5.17;1.67;;;11.90;99.90;;;;;;4941175;29;20217;-61
2022/05/22 03:00:34;;;;;;;5.00;1.90;;;11.80;99.90;;;;;;4947597;28;20228;-61
2022/05/22 03:03:00;;;;;;;6.83;1.87;;;11.70;99.90;;;;;;4929339;29;20210;-61
2022/05/22 03:06:37;;;;;;;3.90;1.93;;;11.70;99.90;;;;;;4930975;29;20212;-61
2022/05/22 03:08:14;;;;;;;7.27;2.57;;;11.70;99.90;;;;;;4944664;29;20206;-61
2022/05/22 03:10:40;;;;;;;5.90;2.63;;;11.70;99.90;;;;;;4931071;29;20255;-61
2022/05/22 03:13:05;;;;;;;7.77;2.60;;;11.60;99.90;;;;;;4938248;29;20216;-61
2022/05/22 03:15:30;;;;;;;3.33;2.03;;;11.50;99.90;;;;;;4931580;29;20734;-61
2022/05/22 03:17:56;;;;;;;9.63;2.50;;;11.40;99.90;;;;;;4930362;29;20213;-61
2022/05/22 03:20:21;;;;;;;4.60;2.07;;;11.50;99.90;;;;;;4944394;29;20592;-62
2022/05/22 03:22:47;;;;;;;6.80;2.00;;;11.40;99.90;;;;;;4927773;29;20208;-62
2022/05/22 03:25:12;;;;;;;5.57;1.97;;;11.30;99.90;;;;;;4933915;29;20208;-62
2022/05/22 03:27:38;;;;;;;4.10;2.03;;;11.40;99.90;;;;;;4937340;29;20241;-62
2022/05/22 03:30:04;;;;;;;11.87;2.93;;;11.30;99.90;;;;;;4944801;29;20849;-62
2022/05/22 03:32:32;;;;;;;5.43;1.70;;;11.40;99.90;;;;;;4939882;28;20580;-62
2022/05/22 03:34:57;;;;;;;4.63;2.40;;;11.40;99.90;;;;;;4946370;29;20288;-62
2022/05/22 03:37:26;;;;;;;6.73;2.70;;;11.40;99.90;;;;;;4929015;29;20293;-63
2022/05/22 03:39:53;;;;;;;7.43;2.33;;;11.30;99.90;;;;;;4947010;29;20214;-62
2022/05/22 03:42:18;;;;;;;8.30;2.87;;;11.40;99.90;;;;;;4928798;29;20216;-63
2022/05/22 03:44:44;;;;;;;5.03;2.47;;;11.40;99.90;;;;;;4940034;29;20316;-62
2022/05/22 03:47:09;;;;;;;8.50;2.13;;;11.50;99.90;;;;;;4933603;29;20246;-62
2022/05/22 03:49:35;;;;;;;5.10;1.90;;;11.50;99.90;;;;;;4935889;29;20181;-63
2022/05/22 03:52:00;;;;;;;5.03;1.90;;;11.50;99.90;;;;;;4944796;29;20193;-62
2022/05/22 03:54:26;;;;;;;7.07;2.80;;;11.50;99.90;;;;;;4937443;29;20215;-63
2022/05/22 03:56:53;;;;;;;5.27;1.80;;;11.50;99.90;;;;;;4930119;29;20209;-62
2022/05/22 03:59:18;;;;;;;8.23;1.90;;;11.50;99.90;;;;;;4949880;28;20260;-63
2022/05/22 04:01:44;;;;;;;7.80;2.30;;;11.60;99.90;;;;;;4928562;29;20286;-64
2022/05/22 04:04:09;;;;;;;4.60;2.17;;;11.60;99.90;;;;;;4938575;29;20241;-64
2022/05/22 04:06:35;;;;;;;6.17;2.07;;;11.60;99.90;;;;;;4946421;29;20264;-62
2022/05/22 04:09:00;;;;;;;3.80;1.67;;;11.50;99.90;;;;;;4937272;29;20205;-62
2022/05/22 04:11:26;;;;;;;10.33;2.27;;;11.60;99.90;;;;;;4943632;29;20190;-62
2022/05/22 04:13:51;;;;;;;8.03;2.17;;;11.60;99.90;;;;;;4937101;29;20213;-61
2022/05/22 04:16:16;;;;;;;7.43;2.10;;;11.60;99.90;;;;;;4940504;29;20217;-64
2022/05/22 04:18:42;;;;;;;6.40;2.23;;;11.60;99.90;;;;;;4941344;29;20212;-62
2022/05/22 04:21:09;;;;;;;5.67;2.10;;;11.70;99.90;;;;;;4945088;28;20249;-62
2022/05/22 04:26:20;;;;;;;4.43;2.30;;;11.70;99.90;;;;;;4934326;29;20193;-61
2022/05/22 04:28:45;;;;;;;8.33;2.50;;;11.70;99.90;;;;;;4930184;29;20210;-61
2022/05/22 04:31:11;;;;;;;8.03;2.67;;;11.70;99.90;;;;;;4937420;29;20353;-60
2022/05/22 04:33:36;;;;;;;4.93;2.20;;;11.80;99.90;;;;;;4932347;29;20216;-61
2022/05/22 04:36:02;;;;;;;4.97;2.00;;;11.80;99.90;;;;;;4939409;29;20253;-61
2022/05/22 04:38:27;;;;;;;7.47;2.03;;;11.90;99.90;;;;;;4937561;29;20211;-61
2022/05/22 04:40:59;;;;;;;9.33;2.80;;;12.00;99.90;;;;;;4929618;29;20222;-61
2022/05/22 04:43:26;;;;;;;5.67;2.10;;;12.00;99.90;;;;;;4937245;29;20210;-61
2022/05/22 04:45:52;;;;;;;8.23;2.03;;;12.10;99.90;;;;;;4929267;29;20270;-61
2022/05/22 04:48:19;;;;;;;7.47;2.93;;;12.10;99.90;;;;;;4939359;29;20206;-62
2022/05/22 04:50:48;;;;;;;6.77;2.50;;;12.20;99.90;;;;;;4929706;29;20236;-61
2022/05/22 04:53:16;;;;;;;6.97;2.53;;;12.20;99.90;;;;;;4939846;29;20256;-61
2022/05/22 04:55:42;;;;;;;9.83;2.80;;;12.20;99.90;;;;;;4941555;28;20227;-63
2022/05/22 04:58:07;;;;;;;5.47;2.30;;;12.20;99.90;;;;;;4936652;29;20228;-63
2022/05/22 05:00:33;;;;;;;8.10;2.10;;;12.20;99.90;;;;;;4929267;29;20565;-61
2022/05/22 05:02:59;;;;;;;10.17;3.30;;;12.30;99.90;;;;;;4927332;29;20242;-63
2022/05/22 05:05:24;;;;;;;6.23;2.87;;;12.30;99.90;;;;;;4929718;29;20206;-61
2022/05/22 05:07:50;;;;;;;6.33;3.77;;;12.20;99.90;;;;;;4935621;29;20210;-61
2022/05/22 05:10:15;;;;;;;7.40;3.40;;;12.20;99.90;;;;;;4929015;29;20213;-62
2022/05/22 05:12:42;;;;;;;6.93;2.80;;;12.30;99.90;;;;;;4928054;29;20305;-62
2022/05/22 05:15:10;;;;;;;6.07;2.67;;;12.30;99.90;;;;;;4944943;28;20709;-63
2022/05/22 05:17:36;;;;;;;8.77;3.00;;;12.30;99.90;;;;;;4926917;29;20599;-61
2022/05/22 05:20:03;;;;;;;6.53;2.47;;;12.30;99.90;;;;;;4878586;29;20206;-61
2022/05/22 05:22:32;;;;;;;4.83;2.40;;;12.30;99.90;;;;;;4937939;28;20679;-61
2022/05/22 05:24:58;;;;;;;7.13;3.43;;;12.40;99.90;;;;;;4941869;29;20544;-61
2022/05/22 05:27:23;;;;;;;9.10;2.97;;;12.40;99.90;;;;;;4940146;29;20208;-62
2022/05/22 05:29:49;;;;;;;4.47;2.03;;;12.40;99.90;;;;;;4932378;29;20190;-61
2022/05/22 05:32:21;;;;;;;5.20;2.83;;;12.40;99.90;;;;;;4931527;29;20299;-62
2022/05/22 05:34:47;;;;;;;5.03;2.50;;;12.40;99.90;;;;;;4935562;28;20588;-60
2022/05/22 05:37:13;;;;;;;5.93;2.00;;;12.50;99.90;;;;;;4934207;28;20205;-60
2022/05/22 05:39:38;;;;;;;11.83;2.70;;;12.40;99.90;;;;;;4937491;29;20197;-59
2022/05/22 05:42:04;;;;;;;5.17;2.10;;;12.50;99.90;;;;;;4926259;29;20216;-59
2022/05/22 05:44:32;;;;;;;8.63;2.43;;;12.50;99.90;;;;;;4927891;29;20590;-59
2022/05/22 05:46:57;;;;;;;7.30;3.47;;;12.60;99.90;;;;;;4937301;29;20193;-59
2022/05/22 05:49:23;;;;;;;9.30;2.73;;;12.70;99.90;;;;;;4940365;29;20204;-60
2022/05/22 05:51:48;;;;;;;5.93;2.20;;;12.70;99.90;;;;;;4926343;29;20603;-60
2022/05/22 05:54:14;;;;;;;10.97;2.67;;;12.80;99.90;;;;;;4943251;29;20190;-59
2022/05/22 05:56:41;;;;;;;6.57;2.10;;;12.80;99.90;;;;;;4944693;29;20673;-60
2022/05/22 05:59:07;;;;;;;6.73;2.63;;;12.90;99.90;;;;;;4947077;28;20212;-60
2022/05/22 06:01:33;;;;;;;6.43;2.20;;;13.00;99.90;;;;;;4937173;29;20738;-62
2022/05/22 06:04:00;;;;;;;8.43;2.77;;;13.10;99.90;;;;;;4935956;29;20258;-61
2022/05/22 06:06:25;;;;;;;7.87;3.20;;;13.10;99.90;;;;;;4938647;28;20257;-62
2022/05/22 06:08:52;;;;;;;8.13;2.93;;;13.10;99.90;;;;;;4930705;29;20294;-62
2022/05/22 06:11:18;;;;;;;8.70;3.53;;;13.10;99.90;;;;;;4928215;29;20207;-62
2022/05/22 06:13:43;;;;;;;6.90;2.90;;;13.10;99.90;;;;;;4939673;29;20240;-62
2022/05/22 06:16:09;;;;;;;7.27;2.43;;;13.20;99.90;;;;;;4927506;29;20640;-64
2022/05/22 06:18:35;;;;;;;6.80;2.40;;;13.30;99.90;;;;;;4934739;29;20631;-63
2022/05/22 06:21:12;;;;;;;10.53;3.30;;;13.30;99.90;;;;;;4937123;29;20288;-62
2022/05/22 06:23:38;;;;;;;11.00;2.40;;;13.30;99.90;;;;;;4934663;29;20208;-65
2022/05/22 06:26:05;;;;;;;6.77;2.17;;;13.30;99.90;;;;;;4935677;28;20199;-63
2022/05/22 06:28:31;;;;;;;5.70;2.20;;;13.40;99.90;;;;;;4935367;28;20684;-63
2022/05/22 06:30:56;;;;;;;6.20;2.33;;;13.50;99.90;;;;;;4937549;29;20190;-63
2022/05/22 06:33:23;;;;;;;8.10;3.27;;;13.60;99.90;;;;;;4935610;29;20266;-64
2022/05/22 06:35:49;;;;;;;9.93;2.77;;;13.70;99.90;;;;;;4938279;29;20735;-62
2022/05/22 06:41:07;;;;;;;9.07;2.53;;;13.80;99.90;;;;;;4917418;29;20227;-65
2022/05/22 06:43:33;;;;;;;7.53;2.60;;;13.90;99.90;;;;;;4925970;29;20303;-62
2022/05/22 06:45:58;;;;;;;7.63;1.97;;;14.10;99.90;;;;;;4943538;29;20710;-61
2022/05/22 06:48:24;;;;;;;4.63;2.53;;;14.20;99.90;;;;;;4930560;29;20209;-63
2022/05/22 06:50:50;;;;;;;6.50;2.37;;;14.40;99.90;;;;;;4931527;28;20343;-64
2022/05/22 06:53:15;;;;;;;4.27;1.70;;;14.50;99.90;;;;;;4941362;29;20985;-63
2022/05/22 06:55:41;;;;;;;8.87;2.40;;;14.60;99.90;;;;;;4925701;29;20234;-60
2022/05/22 06:58:07;;;;;;;3.43;1.97;;;14.60;99.90;;;;;;4941125;29;20559;-60
2022/05/22 07:00:33;;;;;;;8.03;2.00;;;14.70;99.90;;;;;;4940088;28;20243;-63
2022/05/22 07:02:58;;;;;;;3.63;1.70;;;14.80;99.90;;;;;;4945705;29;20244;-62
2022/05/22 07:05:24;;;;;;;8.27;1.90;;;14.80;99.90;;;;;;4939372;29;20198;-62
2022/05/22 07:07:50;;;;;;;8.93;2.30;;;14.80;99.90;;;;;;4939427;29;20191;-62
2022/05/22 07:10:15;;;;;;;5.40;2.43;;;14.80;99.90;;;;;;4929071;29;20609;-63
2022/05/22 07:12:41;;;;;;;5.33;1.93;;;14.90;99.90;;;;;;4940130;29;20232;-62
2022/05/22 07:15:07;;;;;;;5.83;2.23;;;14.90;99.90;;;;;;4930471;29;20270;-62
2022/05/22 07:17:33;;;;;;;5.17;1.90;;;15.00;99.90;;;;;;4923726;29;20203;-64
2022/05/22 07:19:59;;;;;;;6.97;2.90;;;15.00;99.90;;;;;;4932633;29;20191;-64
2022/05/22 07:22:25;;;;;;;7.27;3.27;;;15.10;99.90;;;;;;4937676;29;20346;-62
2022/05/22 07:24:52;;;;;;;2.30;1.27;;;15.00;99.90;;;;;;4941333;28;20202;-64
2022/05/22 07:27:18;;;;;;;4.33;1.37;;;15.00;99.90;;;;;;4929048;29;20205;-67
2022/05/22 07:29:44;;;;;;;4.03;1.23;;;15.00;99.90;;;;;;4931911;29;20195;-62
2022/05/22 07:32:10;;;;;;;7.30;1.50;;;15.20;99.90;;;;;;4942183;29;20259;-63
2022/05/22 07:34:36;;;;;;;5.03;1.57;;;15.20;99.90;;;;;;4930344;29;20210;-65
2022/05/22 07:37:05;;;;;;;5.40;1.77;;;15.30;99.90;;;;;;4934791;29;20202;-63
2022/05/22 07:39:30;;;;;;;5.23;1.77;;;15.10;99.90;;;;;;4930482;28;20190;-65
2022/05/22 07:41:56;;;;;;;8.57;1.90;;;15.10;99.90;;;;;;4931544;29;20210;-64
2022/05/22 07:44:22;;;;;;;1.43;1.33;;;15.20;99.90;;;;;;4930526;29;20469;-67
2022/05/22 07:46:48;;;;;;;6.87;3.50;;;15.20;99.90;;;;;;4931115;29;20569;-64
2022/05/22 07:52:06;;;;;;;5.33;1.60;;;15.60;99.90;;;;;;4913400;29;20534;-64
2022/05/22 07:54:40;;;;;;;3.30;1.00;;;15.70;99.90;;;;;;4931035;29;20225;-64
2022/05/22 07:57:07;;;;;;;2.93;1.33;;;15.80;99.90;;;;;;4928428;29;20207;-64
2022/05/22 07:59:38;;;;;;;4.50;1.03;;;15.70;99.90;;;;;;4931688;29;20222;-64
2022/05/22 08:02:07;;;;;;;1.80;0.93;;;15.60;99.90;;;;;;4930440;29;20211;-64
2022/05/22 08:04:32;;;;;;;4.00;1.60;;;15.40;99.90;;;;;;4930778;29;20211;-64
2022/05/22 08:06:58;;;;;;;4.93;1.57;;;15.50;99.90;;;;;;4936466;29;20221;-66
2022/05/22 08:09:24;;;;;;;1.77;1.20;;;15.60;99.90;;;;;;4929305;29;20206;-65
2022/05/22 08:11:49;;;;;;;3.70;1.20;;;15.50;99.90;;;;;;4928598;29;20261;-61
2022/05/22 08:14:15;;;;;;;5.03;2.17;;;15.50;99.90;;;;;;4933263;29;20198;-62
2022/05/22 08:16:42;;;;;;;5.87;1.77;;;15.60;99.90;;;;;;4932495;28;20221;-63
2022/05/22 08:19:07;;;;;;;9.30;2.23;;;15.80;99.90;;;;;;4930924;29;20278;-62
2022/05/22 08:21:33;;;;;;;1.60;1.30;;;16.10;99.90;;;;;;4933844;29;20294;-62
2022/05/22 08:23:59;;;;;;;2.20;1.20;;;16.20;99.90;;;;;;4939060;29;20219;-63
2022/05/22 08:26:26;;;;;;;2.60;1.37;;;16.20;99.90;;;;;;4941009;29;20221;-64
2022/05/22 08:28:52;;;;;;;4.83;1.13;;;16.30;99.90;;;;;;4941847;28;20202;-63
2022/05/22 08:31:18;;;;;;;2.47;0.90;;;16.40;99.90;;;;;;4931412;29;20210;-62
2022/05/22 08:33:44;;;;;;;2.00;1.60;;;16.40;99.90;;;;;;4937403;28;20257;-62
2022/05/22 08:36:09;;;;;;;4.97;1.50;;;16.40;99.90;;;;;;4927877;29;20588;-63
2022/05/22 08:38:35;;;;;;;3.10;1.47;;;16.40;99.90;;;;;;4931272;29;20194;-64
2022/05/22 08:41:08;;;;;;;4.63;1.63;;;16.40;99.90;;;;;;4927684;29;20274;-63
2022/05/22 08:44:02;;;;;;;3.60;1.27;;;16.50;99.90;;;;;;4946072;29;20237;-64
2022/05/22 08:46:35;;;;;;;4.97;1.97;;;16.50;99.90;;;;;;4936740;28;20210;-64
2022/05/22 08:49:09;;;;;;;2.20;1.43;;;16.30;99.90;;;;;;4943280;29;20212;-65
2022/05/22 08:51:46;;;;;;;3.57;1.20;;;16.10;99.90;;;;;;4930455;29;20535;-64
2022/05/22 08:54:21;;;;;;;4.00;1.33;;;16.00;99.90;;;;;;4944145;29;20186;-63
2022/05/22 08:59:36;;;;;;;5.43;1.47;;;16.20;99.90;;;;;;4941784;29;20228;-62
2022/05/22 09:02:21;;;;;;;7.23;2.30;;;16.40;99.90;;;;;;4940712;29;20206;-63
2022/05/22 09:04:52;;;;;;;4.07;0.90;;;16.50;99.90;;;;;;4929245;29;20631;-63
2022/05/22 09:07:29;;;;;;;2.27;0.73;;;16.60;99.90;;;;;;4948498;28;20556;-62
2022/05/22 09:10:03;;;;;;;2.63;1.10;;;16.70;99.60;;;;;;4917368;29;20273;-67
2022/05/22 09:12:55;;;;;;;2.50;0.83;;;16.60;99.70;;;;;;4926848;29;20228;-66
2022/05/22 09:15:35;;;;;;;3.23;1.33;;;16.50;99.70;;;;;;4928948;29;20274;-66
2022/05/22 09:18:25;;;;;;;1.67;1.03;;;16.60;99.20;;;;;;4943346;28;20217;-65
2022/05/22 09:21:20;;;;;;;4.43;1.13;;;16.80;99.40;;;;;;4926366;28;20226;-68
2022/05/22 09:23:59;;;;;;;4.43;1.30;;;16.90;99.20;;;;;;4936893;29;20676;-65
2022/05/22 09:26:58;;;;;;;5.83;1.77;;;17.00;99.50;;;;;;4930714;29;20718;-66
2022/05/22 09:29:29;;;;;;;4.07;1.20;;;16.90;99.90;;;;;;4936653;29;20199;-66
2022/05/22 09:32:11;;;;;;;6.90;1.77;;;17.10;99.60;;;;;;4934286;29;20209;-66
2022/05/22 09:35:05;;;;;;;2.73;1.10;;;17.30;98.40;;;;;;4929890;28;20234;-65
2022/05/22 09:37:55;;;;;;;4.33;1.33;;;17.00;98.90;;;;;;4928205;29;20269;-65
2022/05/22 09:40:48;;;;;;;1.93;1.00;;;17.00;99.30;;;;;;4927337;29;20207;-66
2022/05/22 09:43:50;;;;;;;2.23;0.90;;;17.00;99.90;;;;;;4939817;29;20200;-66
2022/05/22 09:46:58;;;;;;;2.37;1.20;;;17.00;99.90;;;;;;4928435;29;20202;-67
2022/05/22 09:50:01;;;;;;;6.53;1.40;;;17.30;99.70;;;;;;4927379;29;20316;-66
2022/05/22 09:52:55;;;;;;;2.50;1.07;;;17.40;98.50;;;;;;4927393;29;20202;-67
2022/05/22 09:55:28;;;;;;;2.77;1.23;;;17.40;98.20;;;;;;4922473;29;20227;-67
2022/05/22 09:58:37;;;;;;;1.83;0.80;;;17.20;98.50;;;;;;4937066;29;20766;-65
2022/05/22 10:01:19;;;;;;;4.97;2.10;;;17.10;98.50;;;;;;4926780;29;20201;-63
2022/05/22 10:04:11;;;;;;;3.23;1.20;;;17.00;98.30;;;;;;4929702;29;20191;-64
2022/05/22 10:06:55;;;;;;;3.40;1.30;;;17.10;98.20;;;;;;4932393;29;20191;-64
2022/05/22 10:09:56;;;;;;;0.73;0.73;;;17.30;97.80;;;;;;4931726;29;20210;-64
2022/05/22 10:12:44;;;;;;;3.30;1.23;;;17.70;96.90;;;;;;4917499;29;20252;-65
2022/05/22 10:15:18;;;;;;;3.53;1.10;;;17.70;97.30;;;;;;4923455;29;20218;-64
2022/05/22 10:17:49;;;;;;;2.90;1.17;;;17.90;97.00;;;;;;4942532;29;20198;-64
2022/05/22 10:20:31;;;;;;;3.27;0.87;;;17.80;96.50;;;;;;4936836;29;20234;-63
2022/05/22 10:23:19;;;;;;;2.70;1.13;;;17.70;96.20;;;;;;4939333;29;20231;-64
2022/05/22 10:26:11;;;;;;;3.73;1.20;;;17.80;95.70;;;;;;4926130;29;20234;-63
2022/05/22 10:28:47;;;;;;;2.97;0.90;;;18.00;95.60;;;;;;4891511;29;20203;-64
2022/05/22 10:31:21;;;;;;;5.17;1.20;;;18.20;95.70;;;;;;4941125;28;20182;-64
2022/05/22 10:33:57;;;;;;;3.00;0.90;;;18.60;95.20;;;;;;4933838;29;20213;-66
2022/05/22 10:36:29;;;;;;;1.63;1.20;;;18.60;95.00;;;;;;4933408;28;20739;-67
2022/05/22 10:39:00;;;;;;;2.87;1.60;;;18.40;95.00;;;;;;4942139;29;20225;-66
2022/05/22 10:44:40;;;;;;;3.90;1.17;;;18.40;95.20;;;;;;4924874;29;20233;-67
2022/05/22 10:47:07;;;;;;;5.33;1.50;;;18.70;95.70;;;;;;4941234;29;20192;-68
2022/05/22 10:49:45;;;;;;;2.47;1.20;;;18.90;94.50;;;;;;4932026;28;20214;-69
2022/05/22 10:52:14;;;;;;;22.23;13.90;;;19.00;93.20;;;;;;4928115;29;20204;-70
2022/05/22 10:54:50;;;;;;;10.27;8.43;;;19.00;93.30;;;;;;4926749;29;20317;-68
2022/05/22 10:57:18;;;;;;;8.00;5.33;;;18.80;93.80;;;;;;4944758;29;20199;-73
2022/05/22 10:59:44;;;;;;;431.90;396.53;;;18.40;93.80;;;;;;4935642;29;20278;-77
2022/05/22 11:02:31;;;;;;;10.10;3.73;;;18.30;93.10;;;;;;4935277;29;20202;-74
2022/05/22 11:05:00;;;;;;;3.67;2.77;;;18.30;93.60;;;;;;4930545;29;20320;-76
2022/05/22 11:07:42;;;;;;;2.70;2.17;;;18.40;93.40;;;;;;4939811;29;20200;-60
2022/05/22 11:10:15;;;;;;;7.73;4.47;;;18.20;93.10;;;;;;4930134;29;20211;-60
2022/05/22 11:12:41;;;;;;;2.40;1.60;;;18.20;94.40;;;;;;4937465;29;20197;-60
2022/05/22 11:15:14;;;;;;;5.43;2.10;;;18.70;93.50;;;;;;4923404;29;20229;-61
2022/05/22 11:17:40;;;;;;;4.70;3.00;;;19.20;92.20;;;;;;4942094;29;20197;-61
2022/05/22 11:20:21;;;;;;;61.20;54.73;;;19.70;92.20;;;;;;4939015;29;20209;-60
2022/05/22 11:23:08;;;;;;;5.07;2.47;;;20.00;91.40;;;;;;4932412;29;20692;-59
2022/05/22 11:25:52;;;;;;;7.53;2.70;;;20.40;92.00;;;;;;4935357;29;20873;-61
2022/05/22 11:28:49;;;;;;;10.40;4.60;;;20.80;88.90;;;;;;4928410;29;20292;-60
2022/05/22 11:31:43;;;;;;;6.23;2.90;;;20.90;90.10;;;;;;4934236;29;20232;-60
2022/05/22 11:34:59;;;;;;;2.80;2.17;;;21.50;90.40;;;;;;4934468;29;20222;-60
2022/05/22 11:37:37;;;;;;;5.40;2.70;;;21.90;86.00;;;;;;4891958;28;20851;-60
2022/05/22 11:40:09;;;;;;;8.18;5.05;;;22.40;90.00;;;;;;4924528;29;20226;-62
2022/05/22 11:42:39;;;;;;;19.98;9.90;;;23.10;81.20;;;;;;4933711;29;20219;-61
2022/05/22 11:45:23;;;;;;;14.48;5.80;;;23.40;77.30;;;;;;4930346;29;20218;-61
2022/05/22 11:48:15;;;;;;;10.00;5.30;;;22.80;76.30;;;;;;4931929;29;20186;-61
2022/05/22 11:50:47;;;;;;;8.57;4.10;;;21.30;76.70;;;;;;4931575;29;20764;-60
2022/05/22 11:53:49;;;;;;;17.53;11.97;;;20.80;77.40;;;;;;4929227;29;20294;-61
2022/05/22 11:56:48;;;;;;;10.07;4.50;;;20.50;80.00;;;;;;4923841;29;20233;-60
2022/05/22 11:59:39;;;;;;;15.50;7.93;;;20.30;81.40;;;;;;4920749;29;20333;-66
2022/05/22 12:02:53;;;;;;;14.27;8.27;;;20.20;82.30;;;;;;4931426;29;20200;-67
2022/05/22 12:05:47;;;;;;;3.93;2.47;;;20.50;81.40;;;;;;4928928;29;20198;-69
2022/05/22 12:08:41;;;;;;;6.05;3.50;;;21.70;77.20;;;;;;4924474;29;20195;-67
2022/05/22 12:11:31;;;;;;;3.35;2.70;;;22.90;74.40;;;;;;4938155;29;20198;-69
2022/05/22 12:14:21;;;;;;;13.88;8.43;;;22.70;73.60;;;;;;4921267;29;20187;-66
2022/05/22 12:16:59;;;;;;;6.38;3.45;;;22.70;74.60;;;;;;4935413;29;20281;-69
2022/05/22 12:19:37;;;;;;;11.17;5.03;;;22.10;75.00;;;;;;4938338;29;20558;-69
2022/05/22 12:22:14;;;;;;;13.15;5.20;;;21.60;75.00;;;;;;4920826;29;20268;-66
2022/05/22 12:24:56;;;;;;;19.97;15.07;;;21.40;73.40;;;;;;4926245;29;20210;-67
2022/05/22 12:27:30;;;;;;;17.23;5.90;;;21.50;76.30;;;;;;4933157;29;20273;-69
2022/05/22 12:30:22;;;;;;;13.17;6.43;;;22.50;75.30;;;;;;4918005;29;20230;-68
2022/05/22 12:32:54;;;;;;;18.43;12.63;;;22.60;72.30;;;;;;4929888;29;20195;-70
2022/05/22 12:35:19;;;;;;;12.83;6.30;;;22.30;72.10;;;;;;4920528;29;20225;-67
2022/05/22 12:37:50;;;;;;;5.03;2.97;;;22.00;71.90;;;;;;4928838;29;20714;-66
2022/05/22 12:40:36;;;;;;;6.93;2.80;;;22.10;71.60;;;;;;4930990;29;20206;-66
2022/05/22 12:43:04;;;;;;;4.10;2.77;;;21.50;71.50;;;;;;4927564;29;20637;-66
2022/05/22 12:45:30;;;;;;;7.38;4.55;;;22.60;70.20;;;;;;4926173;29;20586;-67
2022/05/22 12:48:12;;;;;;;6.28;2.80;;;23.30;69.70;;;;;;4936269;29;20253;-66
2022/05/22 12:50:47;;;;;;;12.65;8.32;;;23.30;68.70;;;;;;4929676;29;20233;-64
2022/05/22 12:53:30;;;;;;;19.73;11.90;;;23.10;67.50;;;;;;4934465;29;20676;-66
2022/05/22 12:56:04;;;;;;;5.63;2.83;;;22.30;68.40;;;;;;4935330;29;20231;-66
2022/05/22 12:58:43;;;;;;;5.78;3.15;;;21.80;69.60;;;;;;4928627;29;20195;-66
2022/05/22 13:01:48;;;;;;;10.98;5.63;;;22.90;68.00;;;;;;4925922;29;20210;-66
2022/05/22 13:04:36;;;;;;;7.38;4.22;;;24.40;66.20;;;;;;4928294;29;20258;-66
2022/05/22 13:07:09;;;;;;;9.25;3.83;;;25.30;60.60;;;;;;4931817;29;20186;-66
2022/05/22 13:09:42;;;;;;;9.25;4.05;;;25.80;59.60;;;;;;4928290;29;20253;-65
2022/05/22 13:12:17;;;;;;;9.95;2.67;;;25.60;59.50;;;;;;4936552;29;20195;-65
2022/05/22 13:14:56;;;;;;;9.10;4.82;;;24.70;61.40;;;;;;4928106;28;20228;-65
2022/05/22 13:17:35;;;;;;;5.07;2.47;;;24.30;65.20;;;;;;4944740;29;20560;-66
2022/05/22 13:20:04;;;;;;;5.38;3.17;;;24.20;62.00;;;;;;4935796;29;20312;-65
2022/05/22 13:22:34;;;;;;;2.83;1.70;;;24.30;61.50;;;;;;4926915;28;20209;-66
2022/05/22 13:25:02;;;;;;;5.00;2.28;;;24.30;64.20;;;;;;4927853;29;20543;-66